Time;durP1;ratioP1;P1;durP2;ratioP2;P2;SDS_P1;SDS_P2;PMS_P1;PMS_P2;Temp;Humidity;BMP_temperature;BMP_pressure;BME280_temperature;BME280_humidity;BME280_pressure;Samples;Min_cycle;Max_cycle;Signal;HPM_P1;HPM_P2
2021/10/18 00:01:04;;;;;;;16.15;9.75;;;9.40;99.90;;;;;;5036305;28;20202;-68
2021/10/18 00:03:30;;;;;;;9.90;7.67;;;9.40;99.90;;;;;;5036660;28;20216;-68
2021/10/18 00:05:55;;;;;;;10.70;7.57;;;9.30;99.90;;;;;;5036277;28;20564;-69
2021/10/18 00:08:21;;;;;;;9.90;8.40;;;9.20;99.90;;;;;;5035729;28;20583;-69
2021/10/18 00:10:47;;;;;;;12.57;8.60;;;9.10;99.90;;;;;;5035769;28;20182;-68
2021/10/18 00:13:13;;;;;;;12.70;9.53;;;9.10;99.90;;;;;;5036314;28;20453;-68
2021/10/18 00:15:39;;;;;;;16.17;9.50;;;9.00;99.90;;;;;;5036411;28;20397;-68
2021/10/18 00:18:04;;;;;;;14.03;8.53;;;8.90;99.90;;;;;;5034670;28;20272;-68
2021/10/18 00:20:30;;;;;;;14.53;8.50;;;8.80;99.90;;;;;;5036256;28;20182;-67
2021/10/18 00:22:56;;;;;;;11.67;9.40;;;8.80;99.90;;;;;;5035870;28;20217;-69
2021/10/18 00:25:22;;;;;;;9.87;8.60;;;8.70;99.90;;;;;;5036152;28;20206;-69
2021/10/18 00:27:47;;;;;;;12.67;9.27;;;8.60;99.90;;;;;;5035819;28;20668;-69
2021/10/18 00:30:14;;;;;;;9.70;8.07;;;8.50;99.90;;;;;;5036005;28;20185;-69
2021/10/18 00:32:40;;;;;;;10.75;8.82;;;8.40;99.90;;;;;;5036063;28;20198;-68
2021/10/18 00:35:07;;;;;;;11.47;8.87;;;8.40;99.90;;;;;;5036033;28;20173;-68
2021/10/18 00:37:33;;;;;;;9.55;7.80;;;8.30;99.90;;;;;;5035428;28;20791;-68
2021/10/18 00:39:58;;;;;;;12.70;7.30;;;8.30;99.90;;;;;;5036060;28;20174;-68
2021/10/18 00:42:24;;;;;;;9.47;8.27;;;8.30;99.90;;;;;;5035947;28;20185;-68
2021/10/18 00:44:50;;;;;;;12.60;8.57;;;8.20;99.90;;;;;;5035519;28;20178;-68
2021/10/18 00:47:18;;;;;;;12.13;5.60;;;8.10;99.90;;;;;;5035372;28;20169;-68
2021/10/18 00:49:43;;;;;;;9.68;6.78;;;8.10;99.90;;;;;;5035824;28;20200;-68
2021/10/18 00:52:11;;;;;;;8.50;7.17;;;8.00;99.90;;;;;;5035527;28;20235;-68
2021/10/18 00:54:37;;;;;;;11.57;7.10;;;8.00;99.90;;;;;;5035475;28;20188;-68
2021/10/18 00:57:03;;;;;;;10.63;7.45;;;7.90;99.90;;;;;;5035337;28;20169;-68
2021/10/18 00:59:29;;;;;;;11.48;6.80;;;7.90;99.90;;;;;;5035146;28;20174;-68
2021/10/18 01:01:55;;;;;;;7.50;6.07;;;7.90;99.90;;;;;;5035550;28;20184;-69
2021/10/18 01:04:22;;;;;;;11.17;6.37;;;7.90;99.90;;;;;;5035618;28;20178;-68
2021/10/18 01:06:48;;;;;;;13.27;6.93;;;7.90;99.90;;;;;;5034908;28;20652;-68
2021/10/18 01:09:13;;;;;;;6.30;5.70;;;7.80;99.90;;;;;;5035201;28;20200;-69
2021/10/18 01:11:39;;;;;;;8.63;7.00;;;7.80;99.90;;;;;;5035593;28;20715;-69
2021/10/18 01:14:05;;;;;;;8.63;6.63;;;7.80;99.90;;;;;;5035228;28;20210;-68
2021/10/18 01:16:31;;;;;;;9.43;7.22;;;7.70;99.90;;;;;;5033800;28;20178;-68
2021/10/18 01:18:56;;;;;;;10.60;7.67;;;7.70;99.90;;;;;;5034670;28;20213;-68
2021/10/18 01:21:22;;;;;;;7.93;6.93;;;7.70;99.90;;;;;;5035035;28;20178;-68
2021/10/18 01:23:47;;;;;;;7.00;6.30;;;7.60;99.90;;;;;;5035078;28;20178;-68
2021/10/18 01:26:13;;;;;;;9.10;7.80;;;7.60;99.90;;;;;;5033707;28;20543;-68
2021/10/18 01:28:38;;;;;;;11.43;7.63;;;7.50;99.90;;;;;;5034486;28;20204;-68
2021/10/18 01:31:04;;;;;;;9.63;7.03;;;7.50;99.90;;;;;;5034893;28;20190;-68
2021/10/18 01:33:30;;;;;;;10.37;5.80;;;7.50;99.90;;;;;;5034692;28;20181;-68
2021/10/18 01:35:55;;;;;;;9.63;6.73;;;7.50;99.90;;;;;;5034466;28;20173;-68
2021/10/18 01:38:21;;;;;;;7.30;6.30;;;7.40;99.90;;;;;;5033000;28;20201;-68
2021/10/18 01:40:47;;;;;;;8.10;6.80;;;7.40;99.90;;;;;;5034764;28;20202;-69
2021/10/18 01:43:12;;;;;;;9.03;7.27;;;7.30;99.90;;;;;;5034716;28;20168;-67
2021/10/18 01:45:38;;;;;;;9.77;6.93;;;7.30;99.90;;;;;;5034327;28;20246;-68
2021/10/18 01:48:04;;;;;;;10.47;8.17;;;7.20;99.90;;;;;;5033824;28;20664;-69
2021/10/18 01:50:31;;;;;;;9.07;5.97;;;7.10;99.90;;;;;;5034656;28;20196;-68
2021/10/18 01:52:57;;;;;;;11.88;8.07;;;7.10;99.90;;;;;;5034374;28;20201;-68
2021/10/18 01:55:23;;;;;;;9.07;6.95;;;7.00;99.90;;;;;;5033871;28;20186;-68
2021/10/18 01:57:51;;;;;;;11.40;5.93;;;7.00;99.90;;;;;;5034062;28;20203;-68
2021/10/18 02:00:17;;;;;;;12.65;8.15;;;7.00;99.90;;;;;;5033236;28;20436;-68
2021/10/18 02:02:46;;;;;;;8.52;5.75;;;6.90;99.90;;;;;;5033159;28;20229;-69
2021/10/18 02:05:12;;;;;;;8.05;6.10;;;6.90;99.90;;;;;;5034392;28;20174;-68
2021/10/18 02:07:38;;;;;;;8.40;5.85;;;6.80;99.90;;;;;;5033562;28;20203;-68
2021/10/18 02:10:04;;;;;;;8.77;6.30;;;6.80;99.90;;;;;;5034273;28;20177;-68
2021/10/18 02:12:30;;;;;;;8.38;6.38;;;6.80;99.90;;;;;;5034315;28;20204;-68
2021/10/18 02:14:56;;;;;;;13.67;8.00;;;6.70;99.90;;;;;;5033885;28;20308;-68
2021/10/18 02:17:22;;;;;;;5.83;4.93;;;6.70;99.90;;;;;;5033543;28;20179;-68
2021/10/18 02:19:47;;;;;;;8.60;6.00;;;6.70;99.90;;;;;;5033633;28;20420;-68
2021/10/18 02:22:13;;;;;;;6.20;4.33;;;6.70;99.90;;;;;;5033922;28;20405;-68
2021/10/18 02:24:38;;;;;;;6.43;4.30;;;6.60;99.90;;;;;;5033982;28;20175;-68
2021/10/18 02:27:04;;;;;;;6.50;4.67;;;6.60;99.90;;;;;;5033213;28;20625;-68
2021/10/18 02:29:30;;;;;;;7.60;5.30;;;6.60;99.90;;;;;;5032435;28;20177;-68
2021/10/18 02:31:55;;;;;;;13.20;7.00;;;6.60;99.90;;;;;;5033466;28;20677;-68
2021/10/18 02:34:21;;;;;;;11.90;7.00;;;6.60;99.90;;;;;;5033836;28;20176;-68
2021/10/18 02:36:46;;;;;;;12.30;8.80;;;6.60;99.90;;;;;;5033633;28;20168;-68
2021/10/18 02:39:12;;;;;;;18.60;8.90;;;6.60;99.90;;;;;;5033598;28;20252;-68
2021/10/18 02:41:38;;;;;;;13.60;7.93;;;6.60;99.90;;;;;;5033772;28;20174;-68
2021/10/18 02:44:04;;;;;;;11.27;6.10;;;6.60;99.90;;;;;;5033293;28;20181;-68
2021/10/18 02:46:29;;;;;;;13.50;7.07;;;6.60;99.90;;;;;;5033374;28;20184;-68
2021/10/18 02:48:55;;;;;;;9.37;4.50;;;6.60;99.90;;;;;;5033295;28;20428;-68
2021/10/18 02:51:20;;;;;;;14.27;8.60;;;6.70;99.90;;;;;;5033606;28;20662;-68
2021/10/18 02:53:46;;;;;;;13.57;7.37;;;6.70;99.90;;;;;;5033528;28;20579;-68
2021/10/18 02:56:12;;;;;;;15.20;6.70;;;6.80;99.90;;;;;;5033427;28;20224;-67
2021/10/18 02:58:38;;;;;;;17.63;7.57;;;6.90;99.90;;;;;;5032036;28;20192;-68
2021/10/18 03:01:04;;;;;;;14.30;8.80;;;6.90;99.90;;;;;;5033361;28;20173;-68
2021/10/18 03:03:30;;;;;;;12.47;7.57;;;7.00;99.90;;;;;;5033460;28;20718;-68
2021/10/18 03:05:55;;;;;;;14.43;8.20;;;7.00;99.90;;;;;;5033441;28;20921;-68
2021/10/18 03:08:21;;;;;;;15.33;7.77;;;7.10;99.90;;;;;;5032993;28;20189;-68
2021/10/18 03:10:46;;;;;;;16.63;8.37;;;7.10;99.90;;;;;;5033306;28;20685;-68
2021/10/18 03:13:14;;;;;;;15.30;10.33;;;7.10;99.90;;;;;;5033367;28;20170;-68
2021/10/18 03:15:40;;;;;;;13.35;8.05;;;7.20;99.90;;;;;;5033209;28;20188;-67
2021/10/18 03:18:06;;;;;;;14.63;8.00;;;7.20;99.90;;;;;;5032801;28;20675;-67
2021/10/18 03:20:32;;;;;;;14.13;7.40;;;7.20;99.90;;;;;;5033315;28;20416;-68
2021/10/18 03:22:57;;;;;;;14.70;9.13;;;7.30;99.90;;;;;;5033212;28;20193;-68
2021/10/18 03:25:23;;;;;;;13.00;7.77;;;7.30;99.90;;;;;;5033362;28;20906;-68
2021/10/18 03:27:49;;;;;;;10.80;6.70;;;7.40;99.90;;;;;;5032741;28;20232;-68
2021/10/18 03:30:15;;;;;;;14.03;7.30;;;7.40;99.90;;;;;;5032329;28;20420;-68
2021/10/18 03:32:40;;;;;;;13.25;7.63;;;7.40;99.90;;;;;;5033112;28;20207;-68
2021/10/18 03:35:07;;;;;;;9.50;7.17;;;7.50;99.90;;;;;;5033207;28;20173;-67
2021/10/18 03:37:33;;;;;;;12.23;8.18;;;7.50;99.90;;;;;;5032744;28;20195;-68
2021/10/18 03:39:58;;;;;;;11.43;7.65;;;7.60;99.90;;;;;;5033049;28;20194;-68
2021/10/18 03:42:24;;;;;;;11.93;8.70;;;7.60;99.90;;;;;;5033149;28;20178;-68
2021/10/18 03:44:50;;;;;;;12.20;7.73;;;7.60;99.90;;;;;;5032857;28;20176;-68
2021/10/18 03:47:16;;;;;;;14.20;8.63;;;7.50;99.90;;;;;;5032651;28;20181;-68
2021/10/18 03:49:42;;;;;;;14.30;8.60;;;7.50;99.90;;;;;;5032897;28;20399;-68
2021/10/18 03:52:08;;;;;;;12.10;6.90;;;7.50;99.90;;;;;;5033035;28;20434;-68
2021/10/18 03:54:33;;;;;;;15.80;8.97;;;7.50;99.90;;;;;;5033029;28;20189;-68
2021/10/18 03:56:59;;;;;;;11.27;7.00;;;7.60;99.90;;;;;;5032637;28;20176;-68
2021/10/18 03:59:25;;;;;;;9.57;7.47;;;7.60;99.90;;;;;;5032404;28;20749;-68
2021/10/18 04:01:50;;;;;;;15.40;9.13;;;7.70;99.90;;;;;;5032681;28;20663;-68
2021/10/18 04:04:16;;;;;;;12.43;7.90;;;7.70;99.90;;;;;;5032900;28;20180;-68
2021/10/18 04:06:42;;;;;;;14.70;8.20;;;7.70;99.90;;;;;;5032332;28;20423;-68
2021/10/18 04:09:08;;;;;;;14.97;9.00;;;7.70;99.90;;;;;;5033164;28;20255;-68
2021/10/18 04:11:38;;;;;;;13.23;7.17;;;7.80;99.90;;;;;;5036512;28;20451;-68
2021/10/18 04:14:08;;;;;;;13.95;7.50;;;7.80;99.90;;;;;;5034941;28;20178;-68
2021/10/18 04:16:34;;;;;;;14.55;8.15;;;7.80;99.90;;;;;;5035691;28;20185;-69
2021/10/18 04:19:01;;;;;;;14.30;6.35;;;7.80;99.90;;;;;;5034921;28;20663;-68
2021/10/18 04:21:26;;;;;;;10.48;6.07;;;7.90;99.90;;;;;;5036285;28;20182;-68
2021/10/18 04:23:52;;;;;;;16.20;8.20;;;7.90;99.90;;;;;;5036357;28;20178;-69
2021/10/18 04:26:18;;;;;;;8.20;7.37;;;7.90;99.90;;;;;;5036355;28;20684;-67
2021/10/18 04:28:44;;;;;;;7.80;6.40;;;7.90;99.90;;;;;;5034904;28;20523;-68
2021/10/18 04:31:09;;;;;;;8.60;5.80;;;7.80;99.90;;;;;;5035652;28;20513;-68
2021/10/18 04:33:35;;;;;;;13.10;7.13;;;7.90;99.90;;;;;;5036251;28;20170;-68
2021/10/18 04:36:01;;;;;;;10.13;6.70;;;7.90;99.90;;;;;;5035966;28;20162;-68
2021/10/18 04:38:26;;;;;;;12.10;9.00;;;7.90;99.90;;;;;;5035533;28;20216;-68
2021/10/18 04:40:52;;;;;;;11.10;5.80;;;7.90;99.90;;;;;;5035915;28;20204;-68
2021/10/18 04:43:18;;;;;;;13.50;7.33;;;7.90;99.90;;;;;;5035416;28;20483;-68
2021/10/18 04:45:43;;;;;;;11.57;8.30;;;7.90;99.90;;;;;;5026369;28;20181;-68
2021/10/18 04:48:09;;;;;;;14.90;7.07;;;7.90;99.90;;;;;;5022265;28;20193;-67
2021/10/18 04:50:35;;;;;;;8.33;7.53;;;8.00;99.90;;;;;;5015894;28;20209;-67
2021/10/18 04:53:00;;;;;;;14.43;7.23;;;8.00;99.90;;;;;;5015911;28;20225;-68
2021/10/18 04:55:26;;;;;;;15.20;8.27;;;8.00;99.90;;;;;;5018882;28;20232;-67
2021/10/18 04:57:57;;;;;;;11.00;6.67;;;8.10;99.90;;;;;;5025563;28;20194;-68
2021/10/18 05:00:26;;;;;;;15.35;8.20;;;8.10;99.90;;;;;;5017333;28;20179;-67
2021/10/18 05:02:52;;;;;;;11.65;7.00;;;8.10;99.90;;;;;;5015453;28;20200;-68
2021/10/18 05:05:18;;;;;;;12.47;8.50;;;8.10;99.90;;;;;;5015451;28;20170;-67
2021/10/18 05:07:44;;;;;;;14.02;8.30;;;8.10;99.90;;;;;;5015028;28;20208;-68
2021/10/18 05:10:14;;;;;;;11.40;7.03;;;8.10;99.90;;;;;;5015567;28;20171;-68
2021/10/18 05:12:40;;;;;;;10.10;7.72;;;8.20;99.90;;;;;;5026143;28;20462;-68
2021/10/18 05:15:07;;;;;;;11.52;6.93;;;8.20;99.90;;;;;;5033895;28;20206;-68
2021/10/18 05:17:34;;;;;;;11.02;6.53;;;8.20;99.90;;;;;;5033539;28;20592;-67
2021/10/18 05:20:00;;;;;;;11.65;8.10;;;8.30;99.90;;;;;;5035141;28;20170;-67
2021/10/18 05:22:25;;;;;;;14.10;9.07;;;8.30;99.90;;;;;;5034244;28;20174;-67
2021/10/18 05:24:51;;;;;;;11.10;6.80;;;8.30;99.90;;;;;;5034973;28;20173;-67
2021/10/18 05:27:17;;;;;;;10.27;6.80;;;8.30;99.90;;;;;;5034209;28;20186;-68
2021/10/18 05:29:42;;;;;;;14.27;9.80;;;8.30;99.90;;;;;;5035056;28;20166;-67
2021/10/18 05:32:08;;;;;;;13.73;8.97;;;8.40;99.90;;;;;;5035205;28;20718;-68
2021/10/18 05:34:34;;;;;;;19.07;8.90;;;8.40;99.90;;;;;;5034758;28;20177;-66
2021/10/18 05:37:02;;;;;;;15.77;8.80;;;8.40;99.90;;;;;;5033867;28;20170;-66
2021/10/18 05:39:27;;;;;;;11.00;8.77;;;8.40;99.90;;;;;;5034579;28;20575;-67
2021/10/18 05:41:53;;;;;;;13.47;8.30;;;8.40;99.90;;;;;;5034606;28;20182;-66
2021/10/18 05:44:19;;;;;;;17.17;7.67;;;8.40;99.90;;;;;;5034425;28;20174;-66
2021/10/18 05:46:45;;;;;;;10.85;7.05;;;8.40;99.90;;;;;;5034175;28;20636;-68
2021/10/18 05:49:10;;;;;;;13.10;8.83;;;8.40;99.90;;;;;;5034402;28;20197;-66
2021/10/18 05:51:37;;;;;;;13.00;7.20;;;8.50;99.90;;;;;;5033936;28;20201;-66
2021/10/18 05:54:02;;;;;;;13.07;7.18;;;8.50;99.90;;;;;;5034057;28;20275;-67
2021/10/18 05:56:28;;;;;;;10.50;7.30;;;8.50;99.90;;;;;;5034408;28;20593;-66
2021/10/18 05:58:54;;;;;;;9.37;6.80;;;8.50;99.90;;;;;;5033924;28;20413;-67
2021/10/18 06:01:19;;;;;;;10.67;7.90;;;8.60;99.90;;;;;;5034398;28;20173;-67
2021/10/18 06:03:45;;;;;;;14.77;8.10;;;8.60;99.90;;;;;;5034225;28;20558;-66
2021/10/18 06:06:12;;;;;;;10.87;6.13;;;8.60;99.90;;;;;;5032578;28;20178;-67
2021/10/18 06:08:37;;;;;;;11.10;7.95;;;8.70;99.90;;;;;;5034017;28;20198;-65
2021/10/18 06:11:04;;;;;;;13.30;7.67;;;8.70;99.90;;;;;;5034216;28;20203;-67
2021/10/18 06:13:30;;;;;;;10.43;8.93;;;8.80;99.90;;;;;;5034143;28;20166;-68
2021/10/18 06:15:56;;;;;;;17.45;10.07;;;8.70;99.90;;;;;;5034143;28;20177;-67
2021/10/18 06:18:22;;;;;;;11.90;6.23;;;8.70;99.90;;;;;;5033489;28;20186;-67
2021/10/18 06:20:51;;;;;;;10.10;7.75;;;8.80;99.90;;;;;;5033523;28;20174;-68
2021/10/18 06:23:17;;;;;;;14.98;8.38;;;8.80;99.90;;;;;;5033647;28;20231;-67
2021/10/18 06:25:44;;;;;;;9.18;6.95;;;8.90;99.90;;;;;;5033850;28;20255;-68
2021/10/18 06:28:09;;;;;;;9.30;7.13;;;8.90;99.90;;;;;;5033401;28;20201;-68
2021/10/18 06:30:36;;;;;;;10.70;7.43;;;8.90;99.90;;;;;;5033442;28;20552;-68
2021/10/18 06:33:05;;;;;;;12.13;7.45;;;8.90;99.90;;;;;;5033574;28;21053;-68
2021/10/18 06:35:31;;;;;;;10.02;6.30;;;9.00;99.90;;;;;;5032612;28;20604;-68
2021/10/18 06:37:57;;;;;;;11.98;8.90;;;9.00;99.90;;;;;;5033285;28;20189;-68
2021/10/18 06:40:24;;;;;;;15.73;8.40;;;9.00;99.90;;;;;;5033667;28;20220;-68
2021/10/18 06:42:49;;;;;;;19.73;8.60;;;9.00;99.90;;;;;;5032420;28;20181;-68
2021/10/18 06:45:15;;;;;;;15.70;8.03;;;9.00;99.90;;;;;;5033312;28;20174;-68
2021/10/18 06:47:41;;;;;;;14.37;7.33;;;9.10;99.90;;;;;;5032978;28;20202;-67
2021/10/18 06:50:08;;;;;;;9.43;6.27;;;9.10;99.90;;;;;;5033642;28;20419;-68
2021/10/18 06:52:37;;;;;;;12.82;8.00;;;9.10;99.90;;;;;;5033603;28;20277;-68
2021/10/18 06:55:05;;;;;;;12.85;8.38;;;9.20;99.90;;;;;;5032377;28;20194;-67
2021/10/18 06:57:32;;;;;;;11.48;7.10;;;9.20;99.90;;;;;;5032874;28;20200;-68
2021/10/18 06:59:58;;;;;;;13.60;8.50;;;9.20;99.90;;;;;;5033091;28;20174;-68
2021/10/18 07:02:24;;;;;;;11.38;7.32;;;9.20;99.90;;;;;;5033402;28;20166;-67
2021/10/18 07:04:50;;;;;;;9.13;7.70;;;9.20;99.90;;;;;;5033307;28;20208;-68
2021/10/18 07:07:15;;;;;;;14.33;10.63;;;9.30;99.90;;;;;;5032899;28;20664;-68
2021/10/18 07:09:42;;;;;;;13.93;10.70;;;9.30;99.90;;;;;;5033307;28;20178;-68
2021/10/18 07:12:09;;;;;;;13.45;8.60;;;9.40;99.90;;;;;;5033148;28;20268;-68
2021/10/18 07:14:34;;;;;;;10.88;7.28;;;9.40;99.90;;;;;;5033058;28;20637;-68
2021/10/18 07:17:00;;;;;;;13.53;8.90;;;9.50;99.90;;;;;;5033109;28;20185;-67
2021/10/18 07:19:26;;;;;;;7.83;7.03;;;9.50;99.90;;;;;;5032940;28;20198;-68
2021/10/18 07:21:51;;;;;;;15.90;9.33;;;9.60;99.90;;;;;;5033305;28;20185;-67
2021/10/18 07:24:17;;;;;;;18.20;9.50;;;9.60;99.90;;;;;;5033335;28;20655;-68
2021/10/18 07:26:44;;;;;;;13.38;8.13;;;9.60;99.90;;;;;;5032946;28;20201;-68
2021/10/18 07:29:11;;;;;;;13.73;8.20;;;9.70;99.90;;;;;;5032926;28;20193;-69
2021/10/18 07:31:37;;;;;;;11.48;8.50;;;9.70;99.90;;;;;;5033390;28;20552;-68
2021/10/18 07:34:05;;;;;;;14.23;8.10;;;9.70;99.90;;;;;;5031722;28;20170;-68
2021/10/18 07:36:31;;;;;;;13.95;9.35;;;9.80;99.90;;;;;;5033108;28;20427;-68
2021/10/18 07:39:06;;;;;;;14.55;9.38;;;9.80;99.90;;;;;;5033071;28;20190;-68
2021/10/18 07:41:32;;;;;;;11.52;9.00;;;9.90;99.90;;;;;;5033182;28;20162;-68
2021/10/18 07:43:58;;;;;;;16.20;9.02;;;9.90;99.90;;;;;;5033026;28;20708;-68
2021/10/18 07:46:24;;;;;;;11.90;7.95;;;10.00;99.90;;;;;;5037017;28;20236;-68
2021/10/18 07:48:49;;;;;;;9.40;8.23;;;10.00;99.90;;;;;;5035186;28;20194;-68
2021/10/18 07:51:15;;;;;;;10.67;8.57;;;10.00;99.90;;;;;;5036983;28;20174;-68
2021/10/18 07:53:41;;;;;;;20.30;10.80;;;10.00;99.90;;;;;;5036981;28;20739;-67
2021/10/18 07:56:06;;;;;;;12.77;7.90;;;10.00;99.90;;;;;;5036735;28;20182;-67
2021/10/18 07:58:32;;;;;;;10.63;7.20;;;10.00;99.90;;;;;;5036282;28;20191;-68
2021/10/18 08:00:57;;;;;;;12.40;9.57;;;10.10;99.90;;;;;;5036779;28;20173;-68
2021/10/18 08:03:23;;;;;;;13.60;8.40;;;10.10;99.90;;;;;;5036933;28;20174;-68
2021/10/18 08:05:49;;;;;;;14.97;9.37;;;10.20;99.90;;;;;;5037051;28;20182;-68
2021/10/18 08:08:21;;;;;;;15.27;10.18;;;10.30;99.90;;;;;;5037254;28;20194;-68
2021/10/18 08:10:48;;;;;;;17.30;8.02;;;10.30;99.90;;;;;;5038043;28;20265;-68
2021/10/18 08:13:13;;;;;;;15.30;9.63;;;10.40;99.90;;;;;;5037354;28;20198;-68
2021/10/18 08:15:39;;;;;;;14.13;8.27;;;10.40;99.90;;;;;;5036954;28;20220;-68
2021/10/18 08:18:05;;;;;;;13.80;9.10;;;10.50;99.90;;;;;;5036946;28;20196;-67
2021/10/18 08:20:30;;;;;;;17.40;8.97;;;10.50;99.90;;;;;;5037525;28;20180;-68
2021/10/18 08:22:56;;;;;;;14.33;10.13;;;10.60;99.90;;;;;;5037298;28;20664;-68
2021/10/18 08:25:23;;;;;;;10.83;7.33;;;10.50;99.90;;;;;;5037013;28;20178;-67
2021/10/18 08:27:48;;;;;;;9.98;7.00;;;10.50;99.90;;;;;;5034930;28;20758;-67
2021/10/18 08:30:15;;;;;;;11.80;8.50;;;10.50;99.90;;;;;;5036426;28;20269;-67
2021/10/18 08:32:41;;;;;;;13.73;9.13;;;10.50;99.90;;;;;;5037048;28;20595;-68
2021/10/18 08:35:09;;;;;;;12.60;8.75;;;10.50;99.90;;;;;;5038909;28;20574;-67
2021/10/18 08:40:21;;;;;;;9.02;6.60;;;10.40;99.90;;;;;;5039776;28;20269;-67
2021/10/18 08:43:02;;;;;;;12.98;7.20;;;10.40;99.90;;;;;;5039064;28;20577;-67
2021/10/18 08:45:28;;;;;;;14.40;8.88;;;10.40;99.90;;;;;;5036135;28;20178;-69
2021/10/18 08:47:55;;;;;;;10.32;7.15;;;10.40;99.90;;;;;;5035606;28;20548;-67
2021/10/18 08:50:22;;;;;;;9.90;7.97;;;10.40;99.90;;;;;;5035867;28;20261;-67
2021/10/18 08:52:48;;;;;;;10.05;7.72;;;10.30;99.90;;;;;;5036010;28;20575;-68
2021/10/18 08:55:14;;;;;;;11.50;8.27;;;10.30;99.90;;;;;;5034625;28;20198;-68
2021/10/18 08:57:39;;;;;;;10.13;7.40;;;10.40;99.90;;;;;;5034520;28;20194;-67
2021/10/18 09:00:06;;;;;;;14.27;8.83;;;10.40;99.90;;;;;;5034380;28;20170;-67
2021/10/18 09:02:39;;;;;;;12.65;8.23;;;10.40;99.90;;;;;;5035866;28;20171;-66
2021/10/18 09:05:07;;;;;;;13.57;9.90;;;10.50;99.90;;;;;;5035667;28;20186;-67
2021/10/18 09:07:37;;;;;;;17.20;8.60;;;10.60;99.90;;;;;;5033729;28;20284;-67
2021/10/18 09:10:12;;;;;;;15.60;7.78;;;10.60;99.90;;;;;;5035129;28;20540;-68
2021/10/18 09:12:41;;;;;;;14.45;8.45;;;10.70;99.90;;;;;;5035231;28;20197;-67
2021/10/18 09:15:26;;;;;;;17.73;9.57;;;10.70;99.90;;;;;;5035221;28;20166;-65
2021/10/18 09:17:57;;;;;;;11.18;7.38;;;10.70;99.90;;;;;;5034703;28;20528;-68
2021/10/18 09:20:35;;;;;;;14.10;11.13;;;10.70;99.90;;;;;;5035343;28;20166;-69
2021/10/18 09:23:25;;;;;;;10.75;7.63;;;10.80;99.90;;;;;;5035309;28;20172;-68
2021/10/18 09:26:02;;;;;;;14.60;7.93;;;10.90;99.90;;;;;;5034800;28;20197;-68
2021/10/18 09:28:29;;;;;;;11.00;8.00;;;11.00;99.90;;;;;;5034503;28;20195;-67
2021/10/18 09:30:55;;;;;;;14.30;10.02;;;11.10;99.90;;;;;;5033780;28;20432;-68
2021/10/18 09:33:33;;;;;;;14.93;7.77;;;11.10;99.90;;;;;;5033502;28;20202;-69
2021/10/18 09:36:02;;;;;;;15.27;9.55;;;11.30;99.90;;;;;;5035026;28;20402;-68
2021/10/18 09:38:28;;;;;;;14.43;9.10;;;11.40;99.90;;;;;;5034409;28;20186;-67
2021/10/18 09:40:59;;;;;;;15.83;8.47;;;11.50;99.90;;;;;;5033134;28;20421;-69
2021/10/18 09:46:24;;;;;;;10.15;6.90;;;11.70;99.90;;;;;;5035096;28;20376;-67
2021/10/18 10:53:22;;;;;;;12.40;7.73;;;12.20;99.90;;;;;;5033638;28;20426;-68
2021/10/18 10:55:50;;;;;;;10.53;8.87;;;12.40;99.90;;;;;;5033332;28;20798;-68
2021/10/18 10:58:34;;;;;;;14.43;11.83;;;12.50;99.90;;;;;;5032981;28;20810;-69
2021/10/18 11:01:01;;;;;;;10.57;7.57;;;12.60;99.90;;;;;;5033257;28;20379;-68
2021/10/18 11:03:36;;;;;;;9.60;6.60;;;12.80;99.90;;;;;;5033509;28;20815;-68
2021/10/18 11:06:15;;;;;;;11.90;7.40;;;12.90;99.90;;;;;;5032104;28;20411;-68
2021/10/18 11:08:43;;;;;;;7.17;5.77;;;13.00;99.90;;;;;;5031309;28;20500;-68
2021/10/18 11:11:11;;;;;;;11.90;8.87;;;12.90;99.90;;;;;;5033359;28;20422;-67
2021/10/18 11:13:57;;;;;;;10.70;7.47;;;13.10;99.90;;;;;;5033255;28;20379;-69
2021/10/18 11:16:29;;;;;;;10.03;7.80;;;13.30;99.90;;;;;;5033192;28;20382;-68
2021/10/18 11:18:57;;;;;;;9.83;6.47;;;13.50;99.90;;;;;;5032345;28;20391;-68
2021/10/18 11:21:24;;;;;;;11.83;6.43;;;13.70;99.90;;;;;;5033395;28;20776;-69
2021/10/18 11:23:58;;;;;;;12.43;6.87;;;13.80;99.90;;;;;;5033076;28;20387;-68
2021/10/18 11:26:26;;;;;;;9.03;6.40;;;13.80;99.90;;;;;;5033190;28;20371;-68
2021/10/18 11:28:56;;;;;;;9.50;8.23;;;13.90;99.90;;;;;;5031498;28;20403;-68
2021/10/18 11:31:31;;;;;;;10.33;6.90;;;14.10;99.90;;;;;;5033080;28;20985;-69
2021/10/18 11:34:09;;;;;;;8.03;6.20;;;14.20;99.90;;;;;;5032864;28;20832;-69
2021/10/18 11:36:37;;;;;;;9.83;6.53;;;14.20;99.90;;;;;;5032829;28;20384;-68
2021/10/18 11:39:21;;;;;;;8.17;5.57;;;14.20;99.90;;;;;;5032698;28;20443;-68
2021/10/18 11:41:59;;;;;;;10.10;8.03;;;14.10;99.90;;;;;;5033198;28;20436;-69
2021/10/18 11:44:45;;;;;;;9.00;7.03;;;14.00;99.90;;;;;;5033083;28;20794;-68
2021/10/18 11:47:34;;;;;;;11.87;7.80;;;13.70;99.90;;;;;;5032594;28;20724;-68
2021/10/18 11:50:19;;;;;;;9.00;7.50;;;13.50;99.90;;;;;;5031875;28;20494;-68
2021/10/18 11:52:46;;;;;;;8.60;7.13;;;13.30;99.90;;;;;;5032777;28;20462;-67
2021/10/18 11:55:21;;;;;;;7.03;6.17;;;13.20;99.90;;;;;;5032724;28;20534;-68
2021/10/18 11:57:51;;;;;;;8.33;7.47;;;13.20;99.90;;;;;;5032474;28;20420;-68
2021/10/18 12:00:21;;;;;;;12.57;7.53;;;13.20;99.90;;;;;;5032984;28;20382;-68
2021/10/18 12:02:47;;;;;;;9.07;7.70;;;13.20;99.90;;;;;;5033064;28;20385;-68
2021/10/18 12:05:14;;;;;;;9.20;6.60;;;13.20;99.90;;;;;;5032872;28;20900;-68
2021/10/18 12:07:41;;;;;;;10.90;6.80;;;13.20;99.90;;;;;;5032150;28;20219;-67
2021/10/18 12:10:11;;;;;;;10.33;7.10;;;13.10;99.90;;;;;;5031669;28;20430;-68
2021/10/18 12:12:37;;;;;;;14.03;7.37;;;13.10;99.90;;;;;;5032697;28;20500;-67
2021/10/18 12:15:04;;;;;;;12.43;7.53;;;13.10;99.90;;;;;;5032651;28;20382;-68
2021/10/18 12:17:30;;;;;;;8.83;7.33;;;13.10;99.90;;;;;;5031795;28;20726;-67
2021/10/18 12:19:56;;;;;;;9.67;6.87;;;13.10;99.90;;;;;;5032257;28;20403;-67
2021/10/18 12:22:21;;;;;;;11.00;8.63;;;13.20;99.90;;;;;;5031208;28;20386;-68
2021/10/18 12:25:13;;;;;;;11.00;8.60;;;13.30;99.90;;;;;;5032419;28;20181;-69
2021/10/18 12:27:39;;;;;;;8.33;7.23;;;13.20;99.90;;;;;;5029834;28;20214;-68
2021/10/18 12:30:05;;;;;;;7.27;5.87;;;13.30;99.90;;;;;;5032572;28;20498;-68
2021/10/18 12:32:31;;;;;;;15.67;10.70;;;13.30;99.90;;;;;;5035701;28;20850;-68
2021/10/18 12:35:03;;;;;;;9.77;7.10;;;13.30;99.90;;;;;;5032643;28;20268;-68
2021/10/18 12:37:29;;;;;;;12.77;7.57;;;13.40;99.90;;;;;;5035394;28;20200;-67
2021/10/18 12:39:54;;;;;;;8.63;6.53;;;13.60;99.90;;;;;;5036027;28;20386;-68
2021/10/18 12:42:20;;;;;;;7.63;6.80;;;13.70;99.90;;;;;;5035579;28;20188;-68
2021/10/18 12:44:50;;;;;;;11.00;8.47;;;13.80;99.90;;;;;;5035713;28;20191;-68
2021/10/18 12:47:24;;;;;;;7.60;6.27;;;13.80;99.90;;;;;;5035462;28;20268;-68
2021/10/18 12:50:20;;;;;;;9.40;7.17;;;13.80;99.90;;;;;;5035453;28;20908;-68
2021/10/18 12:53:00;;;;;;;9.17;7.10;;;13.90;99.90;;;;;;5035362;28;20479;-69
2021/10/18 12:55:28;;;;;;;6.67;5.60;;;13.80;99.90;;;;;;5035672;28;20821;-68
2021/10/18 12:57:59;;;;;;;7.77;6.00;;;13.80;99.90;;;;;;5035150;28;20430;-68
2021/10/18 13:00:31;;;;;;;6.67;5.87;;;13.90;99.90;;;;;;5035643;28;20799;-69
2021/10/18 13:03:14;;;;;;;8.87;6.27;;;13.90;99.90;;;;;;5035781;28;20397;-68
2021/10/18 13:05:41;;;;;;;8.33;7.10;;;14.00;99.90;;;;;;5035211;28;20759;-68
2021/10/18 13:08:08;;;;;;;9.77;7.80;;;14.10;99.90;;;;;;5035068;28;20439;-67
2021/10/18 13:10:36;;;;;;;11.03;8.23;;;14.10;99.90;;;;;;5035557;28;20765;-69
2021/10/18 13:13:07;;;;;;;8.60;6.27;;;14.20;99.90;;;;;;5035445;28;20524;-69
2021/10/18 13:15:33;;;;;;;8.40;5.03;;;14.20;99.90;;;;;;5035675;28;20885;-68
2021/10/18 13:17:59;;;;;;;10.40;6.17;;;14.30;99.90;;;;;;5034879;28;20426;-68
2021/10/18 13:20:26;;;;;;;10.47;7.40;;;14.40;99.90;;;;;;5034903;28;20429;-68
2021/10/18 13:22:57;;;;;;;9.40;6.60;;;14.50;99.90;;;;;;5035354;28;20457;-68
2021/10/18 13:25:26;;;;;;;9.30;6.80;;;14.50;99.90;;;;;;5035415;28;20492;-68
2021/10/18 13:27:52;;;;;;;9.73;6.20;;;14.40;99.90;;;;;;5034701;28;20412;-68
2021/10/18 13:30:19;;;;;;;7.90;6.43;;;14.40;99.90;;;;;;5034872;28;20390;-69
2021/10/18 13:32:46;;;;;;;11.50;7.63;;;14.40;99.90;;;;;;5024113;28;20990;-68
2021/10/18 13:35:12;;;;;;;7.83;6.13;;;14.40;99.90;;;;;;5027219;28;20900;-69
2021/10/18 13:37:38;;;;;;;7.50;6.20;;;14.50;99.90;;;;;;5023704;28;20473;-68
2021/10/18 13:40:06;;;;;;;7.03;6.40;;;14.60;99.90;;;;;;5016048;28;20474;-69
2021/10/18 13:42:32;;;;;;;7.90;6.83;;;14.70;99.90;;;;;;5034089;28;20375;-68
2021/10/18 13:44:58;;;;;;;9.37;8.30;;;14.80;99.90;;;;;;5034711;28;20395;-68
2021/10/18 13:47:23;;;;;;;8.40;6.73;;;14.90;99.90;;;;;;5033663;28;20202;-68
2021/10/18 13:49:49;;;;;;;8.13;6.47;;;14.90;99.90;;;;;;5028463;28;20192;-66
2021/10/18 13:52:14;;;;;;;7.10;6.20;;;14.80;99.90;;;;;;5014670;28;20205;-68
2021/10/18 13:54:40;;;;;;;10.03;7.33;;;14.80;99.90;;;;;;5014713;28;20186;-68
2021/10/18 13:57:06;;;;;;;7.73;6.40;;;14.80;99.90;;;;;;5033307;28;20181;-68